Time;durP1;ratioP1;P1;durP2;ratioP2;P2;SDS_P1;SDS_P2;PMS_P1;PMS_P2;Temp;Humidity;BMP_temperature;BMP_pressure;BME280_temperature;BME280_humidity;BME280_pressure;Samples;Min_cycle;Max_cycle;Signal;HPM_P1;HPM_P2
2022/09/08 00:02:05;;;;;;;2.40;1.05;;;;;;;17.36;75.26;100016.13;5072152;28;20093;-79
2022/09/08 00:05:12;;;;;;;6.88;1.00;;;;;;;17.36;75.50;100013.50;5072260;28;20110;-80
2022/09/08 00:08:20;;;;;;;4.05;0.98;;;;;;;17.34;75.12;100004.88;5072093;28;20056;-80
2022/09/08 00:11:30;;;;;;;6.38;1.67;;;;;;;17.08;75.68;99996.59;5072156;28;20506;-80
2022/09/08 00:14:34;;;;;;;4.35;1.30;;;;;;;17.03;76.39;99985.59;5072136;28;20063;-80
2022/09/08 00:17:38;;;;;;;5.30;1.55;;;;;;;17.18;75.98;99993.97;5071873;28;20097;-80
2022/09/08 00:20:42;;;;;;;6.10;1.23;;;;;;;17.26;75.92;99996.78;5071590;28;20043;-80
2022/09/08 00:23:46;;;;;;;4.85;1.33;;;;;;;17.24;75.82;99976.75;5072144;28;20091;-80
2022/09/08 00:26:50;;;;;;;3.10;1.25;;;;;;;17.09;76.36;99973.66;5071800;28;20052;-80
2022/09/08 00:29:57;;;;;;;3.20;1.10;;;;;;;17.19;76.23;99974.50;5071982;28;20439;-80
2022/09/08 00:33:02;;;;;;;2.92;1.20;;;;;;;17.18;76.50;99996.63;5072019;28;20462;-80
2022/09/08 00:36:07;;;;;;;4.47;1.35;;;;;;;17.14;76.72;100027.75;5071861;28;20074;-80
2022/09/08 00:39:10;;;;;;;4.18;1.20;;;;;;;16.99;77.14;100025.63;5071368;28;20040;-80
2022/09/08 00:42:15;;;;;;;5.85;1.20;;;;;;;16.69;78.66;100014.09;5071502;28;20135;-80
2022/09/08 00:45:19;;;;;;;5.68;1.67;;;;;;;16.99;78.11;100028.25;5070575;28;20059;-79
2022/09/08 00:48:23;;;;;;;2.65;0.93;;;;;;;17.11;77.39;100014.81;5071611;28;20077;-79
2022/09/08 00:51:27;;;;;;;2.15;1.10;;;;;;;17.00;77.49;100014.91;5071676;28;20103;-79
2022/09/08 00:54:31;;;;;;;4.53;1.20;;;;;;;17.11;77.35;100019.28;5071077;28;20092;-80
2022/09/08 00:57:34;;;;;;;2.58;1.00;;;;;;;17.08;77.36;100003.69;5071306;28;20043;-80
2022/09/08 01:00:41;;;;;;;3.38;1.25;;;;;;;17.01;77.71;100011.31;5073264;28;20070;-80
2022/09/08 01:03:48;;;;;;;5.10;1.38;;;;;;;17.23;76.63;100007.63;5075264;28;20055;-80
2022/09/08 01:14:51;;;;;;;5.38;1.27;;;;;;;17.23;76.62;100018.19;5056768;28;20067;-80
2022/09/08 01:17:55;;;;;;;3.25;1.00;;;;;;;17.16;76.77;100017.88;5075104;28;20438;-80
2022/09/08 01:21:07;;;;;;;2.72;0.80;;;;;;;17.27;76.36;100013.47;5074980;28;20082;-80
2022/09/08 01:24:27;;;;;;;6.07;1.13;;;;;;;17.32;76.16;100020.00;5076045;28;20140;-79
2022/09/08 01:27:35;;;;;;;6.50;1.40;;;;;;;17.41;76.20;100021.84;5074638;28;20178;-80
2022/09/08 01:30:42;;;;;;;3.72;1.13;;;;;;;17.29;76.64;100014.16;5073595;28;20044;-80
2022/09/08 01:33:45;;;;;;;5.47;1.20;;;;;;;17.13;77.20;100010.25;5074436;28;20075;-80
2022/09/08 01:36:49;;;;;;;3.00;0.88;;;;;;;17.12;77.15;100005.09;5074294;28;20044;-80
2022/09/08 01:39:56;;;;;;;2.17;0.85;;;;;;;17.16;76.89;100009.13;5074355;28;20124;-80
2022/09/08 01:43:00;;;;;;;3.08;1.15;;;;;;;17.16;77.06;100006.47;5074143;28;20576;-80
2022/09/08 01:46:04;;;;;;;4.20;1.02;;;;;;;17.18;77.45;99999.25;5074161;28;20097;-80
2022/09/08 01:49:08;;;;;;;2.22;0.90;;;;;;;17.13;77.82;100001.47;5074010;28;20066;-80
2022/09/08 01:52:12;;;;;;;7.13;1.27;;;;;;;17.21;77.29;100004.28;5074214;28;20055;-80
2022/09/08 01:55:16;;;;;;;2.45;0.90;;;;;;;17.14;77.86;99998.72;5074081;28;20059;-80
2022/09/08 01:58:20;;;;;;;6.45;1.33;;;;;;;17.20;77.87;100008.72;5074215;28;20552;-79
2022/09/08 02:01:24;;;;;;;3.63;1.25;;;;;;;17.21;77.86;100009.56;5074007;28;20411;-80
2022/09/08 02:04:27;;;;;;;2.95;1.02;;;;;;;17.14;78.17;100016.38;5074166;28;20497;-80
2022/09/08 02:07:37;;;;;;;3.03;0.90;;;;;;;17.11;78.71;100021.91;5061409;28;20070;-80
2022/09/08 02:10:58;;;;;;;4.60;1.20;;;;;;;17.22;78.64;100018.31;5073161;28;20134;-80
2022/09/08 02:14:03;;;;;;;2.47;1.02;;;;;;;17.32;78.32;100021.81;5073574;28;20043;-80
2022/09/08 02:17:10;;;;;;;4.63;1.17;;;;;;;17.29;78.43;100017.63;5061841;28;20501;-80
2022/09/08 02:20:15;;;;;;;5.20;1.10;;;;;;;17.34;78.52;100020.72;5073706;28;20502;-80
2022/09/08 02:23:20;;;;;;;4.68;1.33;;;;;;;17.19;79.16;100016.78;5073850;28;20554;-80
2022/09/08 02:26:26;;;;;;;4.57;1.10;;;;;;;17.31;79.04;100018.34;5073336;28;20573;-80
2022/09/08 02:29:31;;;;;;;2.45;0.80;;;;;;;17.25;79.73;100010.13;5073720;28;20047;-80
2022/09/08 02:32:35;;;;;;;3.55;1.00;;;;;;;17.26;79.06;100017.94;5073380;28;20136;-80
2022/09/08 02:35:39;;;;;;;5.30;1.15;;;;;;;17.28;79.36;100015.13;5073524;28;20093;-80
2022/09/08 02:38:55;;;;;;;4.38;1.17;;;;;;;17.29;79.21;100011.53;5073596;28;20454;-80
2022/09/08 02:42:01;;;;;;;5.40;1.40;;;;;;;17.24;79.88;100008.47;5073546;28;20147;-80
2022/09/08 02:45:08;;;;;;;3.67;1.17;;;;;;;17.24;79.97;100004.00;5073247;28;20051;-80
2022/09/08 02:48:12;;;;;;;3.72;1.40;;;;;;;17.25;80.16;99997.75;5074139;28;20042;-80
2022/09/08 02:51:20;;;;;;;6.20;1.40;;;;;;;17.19;80.33;100003.56;5074059;28;20062;-80
2022/09/08 02:54:25;;;;;;;6.75;1.42;;;;;;;17.19;80.15;99990.34;5074829;28;20051;-80
2022/09/08 02:57:30;;;;;;;6.47;1.30;;;;;;;17.31;79.86;99993.72;5075598;28;20051;-80
2022/09/08 03:00:43;;;;;;;5.60;0.90;;;;;;;17.35;79.75;99973.97;5078487;28;20043;-80
2022/09/08 03:03:47;;;;;;;4.88;1.50;;;;;;;17.24;80.68;99966.19;5088868;28;20082;-80
2022/09/08 03:06:52;;;;;;;4.72;1.90;;;;;;;17.17;80.50;99972.03;5085179;28;20446;-80
2022/09/08 03:09:56;;;;;;;3.97;1.25;;;;;;;17.13;80.58;99981.19;5093880;28;20035;-80
2022/09/08 03:13:00;;;;;;;7.30;1.23;;;;;;;17.07;81.23;99979.09;5053943;28;20043;-79
2022/09/08 03:16:07;;;;;;;3.95;1.25;;;;;;;17.19;80.90;99982.44;5058263;28;20051;-79
2022/09/08 03:19:43;;;;;;;4.80;1.50;;;;;;;17.17;81.14;99990.50;5055959;28;20090;-79
2022/09/08 03:22:49;;;;;;;4.15;1.25;;;;;;;17.22;80.97;99986.63;5053579;28;20069;-79
2022/09/08 03:25:54;;;;;;;3.47;1.20;;;;;;;17.20;80.58;99992.06;5052412;28;20396;-80
2022/09/08 03:28:58;;;;;;;4.05;1.20;;;;;;;17.19;80.73;99985.91;5052449;28;20040;-80
2022/09/08 03:32:32;;;;;;;4.60;1.42;;;;;;;17.08;81.60;99982.56;5051980;28;20121;-80
2022/09/08 03:35:44;;;;;;;4.07;1.30;;;;;;;17.14;81.48;99976.75;5052616;28;20074;-80
2022/09/08 03:38:51;;;;;;;4.38;1.60;;;;;;;17.11;81.96;99964.63;5052414;28;20044;-80
2022/09/08 03:41:55;;;;;;;4.25;1.23;;;;;;;17.09;81.72;99958.63;5052582;28;20047;-80
2022/09/08 03:45:02;;;;;;;3.55;1.42;;;;;;;17.14;81.60;99961.72;5052556;28;20098;-80
2022/09/08 03:48:34;;;;;;;4.45;1.65;;;;;;;17.16;81.73;99958.94;5052470;28;20047;-79
2022/09/08 03:51:38;;;;;;;6.22;1.20;;;;;;;17.21;81.17;99962.00;5052666;28;20067;-80
2022/09/08 03:54:48;;;;;;;8.23;1.95;;;;;;;17.18;81.71;99962.28;5052077;28;20136;-80
2022/09/08 03:57:58;;;;;;;7.43;1.92;;;;;;;17.13;81.52;99956.56;5052401;28;20040;-80
2022/09/08 04:01:09;;;;;;;4.43;1.67;;;;;;;16.93;83.04;99948.59;5052728;28;20048;-80
2022/09/08 04:04:16;;;;;;;5.65;1.42;;;;;;;16.79;84.00;99946.34;5052019;28;20503;-80
2022/09/08 04:07:30;;;;;;;3.55;0.95;;;;;;;17.00;82.99;99948.06;5052040;28;20215;-80
2022/09/08 04:10:38;;;;;;;4.82;1.25;;;;;;;16.89;83.61;99947.19;5052062;28;20044;-80
2022/09/08 04:13:46;;;;;;;6.45;1.58;;;;;;;16.81;84.06;99943.56;5052265;28;20512;-80
2022/09/08 04:17:16;;;;;;;4.47;1.48;;;;;;;16.99;83.67;99939.31;5047132;28;20051;-80
2022/09/08 04:20:20;;;;;;;3.78;1.27;;;;;;;17.01;83.85;99934.72;5047555;28;20079;-80
2022/09/08 04:51:54;;;;;;;5.38;1.30;;;;;;;16.41;88.44;99932.00;5051041;28;20068;-80
2022/09/08 04:55:02;;;;;;;2.47;1.20;;;;;;;16.43;88.23;99934.47;5051159;28;20052;-80
2022/09/08 04:58:10;;;;;;;2.95;1.23;;;;;;;16.70;87.18;99937.38;5051056;28;20087;-80
2022/09/08 05:01:23;;;;;;;2.80;1.20;;;;;;;16.77;86.76;99939.53;5052431;28;20208;-80
2022/09/08 05:04:29;;;;;;;3.42;1.40;;;;;;;16.86;86.34;99931.63;5052726;28;20044;-81
2022/09/08 05:07:33;;;;;;;2.88;1.20;;;;;;;16.84;86.67;99932.72;5049796;28;20044;-81
2022/09/08 05:10:37;;;;;;;3.28;1.30;;;;;;;16.74;87.01;99940.59;5049808;28;20510;-81
2022/09/08 05:13:43;;;;;;;2.85;1.30;;;;;;;16.83;85.99;99934.53;5049671;28;20052;-80
2022/09/08 05:16:47;;;;;;;4.70;1.70;;;;;;;16.71;86.63;99932.94;5048752;28;20095;-80
2022/09/08 05:19:51;;;;;;;3.30;1.35;;;;;;;16.67;87.19;99936.81;5055775;28;20052;-80
2022/09/08 05:22:56;;;;;;;7.10;1.90;;;;;;;16.80;87.07;99936.63;5064665;28;20062;-81
2022/09/08 05:26:07;;;;;;;3.72;1.30;;;;;;;16.91;86.73;99920.63;5077740;28;20395;-80
2022/09/08 05:29:11;;;;;;;3.08;1.05;;;;;;;16.81;86.45;99927.72;5090137;28;20129;-80
2022/09/08 05:32:17;;;;;;;3.55;1.25;;;;;;;16.67;87.20;99935.00;5067134;28;20043;-81
2022/09/08 05:35:24;;;;;;;3.55;1.45;;;;;;;16.61;87.26;99934.72;5070135;28;20423;-81
2022/09/08 05:38:27;;;;;;;2.78;1.27;;;;;;;16.71;87.40;99928.47;5080755;28;20063;-81
2022/09/08 05:41:33;;;;;;;3.95;1.27;;;;;;;16.86;86.22;99926.34;5091259;28;20047;-80
2022/09/08 05:44:37;;;;;;;2.75;1.20;;;;;;;16.65;87.33;99938.75;5090623;28;20047;-80
2022/09/08 05:47:41;;;;;;;2.67;1.38;;;;;;;16.54;88.03;99936.22;5089926;28;20051;-81
2022/09/08 05:50:46;;;;;;;2.83;1.00;;;;;;;16.70;87.74;99915.44;5089720;28;20047;-81
2022/09/08 05:53:52;;;;;;;3.20;1.60;;;;;;;16.47;89.09;99920.91;5089666;28;20050;-81
2022/09/08 05:56:57;;;;;;;4.20;1.20;;;;;;;16.63;89.18;99932.78;5061663;28;20119;-81
2022/09/08 06:00:01;;;;;;;5.15;1.73;;;;;;;16.69;88.47;99932.25;5069770;28;20128;-81
2022/09/08 06:03:16;;;;;;;4.05;1.30;;;;;;;16.88;87.31;99908.56;5069636;28;20043;-81
2022/09/08 06:06:20;;;;;;;5.00;1.50;;;;;;;16.99;86.95;99917.34;5070034;28;20103;-82
2022/09/08 06:09:24;;;;;;;4.88;1.10;;;;;;;16.89;87.19;99934.00;5070497;28;20098;-81
2022/09/08 06:12:27;;;;;;;5.00;1.40;;;;;;;16.64;89.02;99947.63;5059748;28;20510;-81
2022/09/08 06:15:32;;;;;;;4.40;1.70;;;;;;;16.59;89.19;99945.41;5070153;28;20109;-81
2022/09/08 06:18:38;;;;;;;2.28;0.95;;;;;;;16.74;88.98;99948.50;5069783;28;20048;-81
2022/09/08 06:21:42;;;;;;;3.10;1.38;;;;;;;17.04;87.16;99955.59;4710175;28;10000234;-81
2022/09/08 06:24:47;;;;;;;3.85;1.35;;;;;;;17.19;86.22;99958.66;5051937;28;20514;-81
2022/09/08 06:28:14;;;;;;;3.85;2.28;;;;;;;17.13;86.43;99961.84;5069748;28;20506;-81
2022/09/08 06:31:28;;;;;;;4.55;2.22;;;;;;;17.26;85.98;99970.38;5050231;28;20043;-80
2022/09/08 06:34:46;;;;;;;7.10;2.10;;;;;;;17.36;85.30;99975.66;5068044;28;20043;-80
2022/09/08 06:37:56;;;;;;;6.95;2.03;;;;;;;17.36;84.87;99979.16;5069152;28;20055;-80
2022/09/08 06:41:14;;;;;;;3.30;1.63;;;;;;;17.33;85.11;99966.22;5062276;28;20051;-81
2022/09/08 06:44:22;;;;;;;3.60;1.80;;;;;;;17.31;85.63;99972.59;5069437;28;20051;-80
2022/09/08 06:47:39;;;;;;;9.52;2.85;;;;;;;17.43;84.92;99967.03;5069381;28;20109;-81
2022/09/08 06:54:51;;;;;;;3.55;1.83;;;;;;;17.05;87.75;99977.56;5069236;28;20517;-81
2022/09/08 06:58:20;;;;;;;5.25;2.33;;;;;;;17.25;87.32;99976.59;5068662;28;20090;-81
2022/09/08 07:01:34;;;;;;;5.47;2.75;;;;;;;17.29;86.60;99975.34;5054160;28;20515;-82
2022/09/08 07:04:59;;;;;;;4.72;2.00;;;;;;;17.01;88.59;99978.78;5056902;28;20051;-82
2022/09/08 07:08:24;;;;;;;3.45;1.50;;;;;;;16.98;88.82;99969.34;5069554;28;20074;-82
2022/09/08 07:11:43;;;;;;;4.30;2.08;;;;;;;16.93;89.53;99969.72;5070096;28;20078;-82
2022/09/08 07:15:11;;;;;;;3.08;1.45;;;;;;;16.93;89.67;99969.72;5066512;28;20047;-82
2022/09/08 07:18:20;;;;;;;2.40;1.10;;;;;;;17.26;88.32;99974.78;5089341;28;20521;-83
2022/09/08 07:21:45;;;;;;;4.03;1.52;;;;;;;16.89;90.41;99980.69;5088831;28;20420;-80
2022/09/08 07:24:53;;;;;;;3.87;1.37;;;;;;;17.06;89.34;99976.56;5049821;28;20281;-80
2022/09/08 07:28:09;;;;;;;4.53;1.67;;;;;;;16.78;91.06;99976.34;5050234;28;20075;-80
2022/09/08 07:31:20;;;;;;;2.45;1.25;;;;;;;16.77;92.47;99985.22;5049814;28;20082;-80
2022/09/08 07:34:29;;;;;;;2.67;1.40;;;;;;;17.07;91.91;99970.31;5066465;28;20047;-79
2022/09/08 07:37:38;;;;;;;3.50;1.10;;;;;;;17.36;89.93;99981.78;5070145;28;20090;-80
2022/09/08 07:40:51;;;;;;;3.38;1.52;;;;;;;17.52;88.82;99983.06;5069936;28;20067;-80
2022/09/08 07:44:05;;;;;;;2.00;1.02;;;;;;;17.54;88.65;99991.66;5056767;28;20086;-79
2022/09/08 07:47:24;;;;;;;3.22;0.90;;;;;;;17.53;88.40;99997.94;5056182;28;20094;-80
2022/09/08 07:54:18;;;;;;;2.40;0.68;;;;;;;17.81;85.54;99996.31;5067681;28;20568;-80
2022/09/08 07:57:52;;;;;;;4.07;0.80;;;;;;;17.63;84.67;99998.78;5069757;28;20094;-80
2022/09/08 08:01:39;;;;;;;2.42;0.90;;;;;;;17.78;84.32;100005.38;5052527;28;20177;-80
2022/09/08 08:04:58;;;;;;;2.22;0.70;;;;;;;17.91;85.44;99993.66;5057069;28;20043;-80
2022/09/08 08:08:55;;;;;;;3.65;0.90;;;;;;;18.00;84.99;99995.47;5069741;28;20083;-79
2022/09/08 08:12:38;;;;;;;3.90;0.98;;;;;;;17.57;84.27;100008.09;4991978;28;20045;-79
2022/09/08 08:15:51;;;;;;;2.33;0.70;;;;;;;17.53;83.77;100011.97;5024898;28;20066;-80
2022/09/08 08:19:17;;;;;;;1.90;0.73;;;;;;;17.57;82.91;100009.91;5073030;28;20052;-79
2022/09/08 08:22:52;;;;;;;3.03;0.70;;;;;;;17.56;82.36;100016.16;5059254;28;20102;-80
2022/09/08 08:26:05;;;;;;;3.55;1.40;;;;;;;17.27;83.18;100019.59;5052928;28;20052;-79
2022/09/08 08:29:39;;;;;;;1.70;0.70;;;;;;;17.63;82.58;100012.00;5049966;28;20098;-79
2022/09/08 08:33:08;;;;;;;3.28;0.85;;;;;;;17.54;82.72;100026.03;5057634;28;20083;-79
2022/09/08 08:36:15;;;;;;;2.22;0.70;;;;;;;17.88;81.83;100023.88;5053364;28;20060;-80
2022/09/08 08:39:22;;;;;;;2.72;0.60;;;;;;;17.92;81.68;100025.25;5053587;28;20082;-79
2022/09/08 08:43:18;;;;;;;2.65;0.80;;;;;;;18.00;80.69;100033.34;5051922;28;20048;-79
2022/09/08 08:46:45;;;;;;;2.70;0.60;;;;;;;18.49;79.06;100033.28;5033462;28;20048;-79
2022/09/08 08:50:11;;;;;;;2.55;0.77;;;;;;;18.27;79.81;100037.91;5053598;28;20048;-79
2022/09/08 08:54:06;;;;;;;2.63;0.52;;;;;;;18.53;77.74;100032.81;5052729;28;20051;-79
2022/09/08 08:57:51;;;;;;;1.50;0.60;;;;;;;17.87;80.94;100030.97;4981848;28;20040;-79
2022/09/08 09:01:24;;;;;;;4.22;0.95;;;;;;;17.95;80.14;100040.00;5034973;28;20804;-79
2022/09/08 09:05:11;;;;;;;2.00;0.68;;;;;;;18.20;79.24;100036.81;5051481;28;20099;-79
2022/09/08 09:08:45;;;;;;;2.60;0.80;;;;;;;18.23;78.57;100039.16;5051620;28;20611;-80
2022/09/08 09:12:30;;;;;;;2.42;0.82;;;;;;;18.35;78.46;100045.97;5050416;28;20270;-80
2022/09/08 09:16:02;;;;;;;3.80;1.13;;;;;;;18.33;75.70;100039.97;5052124;28;20404;-79
2022/09/08 09:19:34;;;;;;;2.35;0.82;;;;;;;18.11;76.10;100056.16;5051414;28;20040;-80
2022/09/08 09:23:19;;;;;;;2.00;0.73;;;;;;;18.17;74.64;100054.78;5038766;28;20411;-79
2022/09/08 09:26:26;;;;;;;3.60;0.73;;;;;;;18.11;73.81;100050.88;5052443;28;20039;-79
2022/09/08 09:29:37;;;;;;;2.58;1.00;;;;;;;18.32;73.80;100037.50;5040904;28;20098;-78
2022/09/08 09:32:49;;;;;;;2.50;0.73;;;;;;;18.66;71.50;100027.22;5051320;28;20110;-79
2022/09/08 09:35:56;;;;;;;2.85;0.90;;;;;;;18.69;70.73;100029.56;5051621;28;20059;-79
2022/09/08 09:39:33;;;;;;;6.78;0.70;;;;;;;19.00;71.22;100032.00;5051012;28;20048;-78
2022/09/08 09:43:09;;;;;;;;;;;;;;;;;;;;;
2022/09/08 09:46:35;;;;;;;2.00;0.50;;;;;;;18.76;69.27;100020.13;5052808;28;20449;-79
2022/09/08 09:50:15;;;;;;;2.30;0.50;;;;;;;18.87;69.77;100020.91;5050567;28;20087;-79
2022/09/08 09:53:46;;;;;;;2.70;0.60;;;;;;;19.08;68.15;100015.38;5058581;28;20093;-79
2022/09/08 09:57:11;;;;;;;2.53;0.50;;;;;;;19.03;66.66;100031.72;5070824;28;20510;-79
2022/09/08 10:00:35;;;;;;;3.00;0.50;;;;;;;18.89;64.46;100032.19;5069842;28;20052;-78
2022/09/08 10:04:17;;;;;;;1.98;0.43;;;;;;;18.87;64.29;100039.47;5070872;28;20060;-79
2022/09/08 10:07:25;;;;;;;2.65;0.50;;;;;;;18.98;64.92;100036.59;5070381;28;20089;-79
2022/09/08 10:11:05;;;;;;;3.63;0.77;;;;;;;18.86;63.97;100040.41;5070549;28;20043;-79
2022/09/08 10:14:34;;;;;;;3.13;0.73;;;;;;;18.79;65.99;100022.47;5070882;28;20059;-79
2022/09/08 10:17:38;;;;;;;3.67;0.55;;;;;;;18.89;67.30;100029.53;5058021;28;20067;-79
2022/09/08 10:20:56;;;;;;;1.85;0.50;;;;;;;18.91;64.86;100027.59;5069300;28;20128;-79
2022/09/08 10:24:18;;;;;;;3.05;0.40;;;;;;;18.96;63.91;100033.28;5069372;28;20291;-79
2022/09/08 10:28:06;;;;;;;6.15;0.75;;;;;;;18.94;62.63;100035.25;5049132;28;20051;-79
2022/09/08 10:31:21;;;;;;;1.58;0.30;;;;;;;18.94;63.65;100035.25;5048513;28;20051;-79
2022/09/08 10:34:45;;;;;;;1.38;0.40;;;;;;;19.12;64.04;100033.50;5048547;28;20558;-79
2022/09/08 10:38:26;;;;;;;3.20;0.45;;;;;;;19.44;63.43;100034.84;5049732;28;20086;-79
2022/09/08 10:41:49;;;;;;;3.30;0.60;;;;;;;19.53;61.32;100028.66;5049723;28;20047;-79
2022/09/08 10:44:59;;;;;;;4.32;0.80;;;;;;;19.36;61.10;100032.91;5035625;28;20075;-78
2022/09/08 10:48:31;;;;;;;5.32;0.95;;;;;;;19.17;60.16;100040.97;5048619;28;20052;-79
2022/09/08 10:51:55;;;;;;;2.50;0.80;;;;;;;19.33;60.03;100037.69;5049091;28;20056;-79
2022/09/08 10:55:27;;;;;;;2.58;0.38;;;;;;;19.57;58.96;100042.44;5049020;28;20075;-79
2022/09/08 10:58:52;;;;;;;2.38;0.20;;;;;;;19.57;58.74;100040.63;5047316;28;20404;-79
2022/09/08 11:02:32;;;;;;;1.88;0.40;;;;;;;19.60;57.91;100045.63;5049820;28;20056;-80
2022/09/08 11:05:58;;;;;;;3.28;0.57;;;;;;;19.75;57.85;100053.94;5049557;28;20055;-80
2022/09/08 11:09:16;;;;;;;2.78;0.70;;;;;;;19.61;57.85;100051.75;5063335;28;20613;-80
2022/09/08 11:12:48;;;;;;;1.95;0.40;;;;;;;19.61;57.89;100054.41;5056218;28;20145;-80
2022/09/08 11:16:13;;;;;;;2.38;0.50;;;;;;;19.63;58.48;100055.09;5063558;28;20131;-80
2022/09/08 11:19:31;;;;;;;2.70;0.35;;;;;;;19.44;58.46;100050.75;5049724;28;20040;-80
2022/09/08 11:23:07;;;;;;;2.15;0.55;;;;;;;19.55;58.96;100053.19;5062968;28;20560;-80
2022/09/08 11:26:25;;;;;;;2.85;0.57;;;;;;;19.50;59.46;100052.81;5068546;28;20098;-80
2022/09/08 11:29:37;;;;;;;3.47;0.55;;;;;;;19.28;59.43;100062.00;5068264;28;20162;-80
2022/09/08 11:33:03;;;;;;;5.82;0.55;;;;;;;19.25;58.83;100071.06;5067591;28;20052;-80
2022/09/08 11:36:06;;;;;;;2.45;0.40;;;;;;;19.12;59.31;100067.09;5068092;28;20054;-80
2022/09/08 11:39:17;;;;;;;1.73;0.35;;;;;;;19.42;59.06;100068.63;5068687;28;20458;-80
2022/09/08 11:42:54;;;;;;;1.83;0.40;;;;;;;19.65;58.20;100067.25;5070160;28;20047;-80
2022/09/08 11:46:03;;;;;;;3.35;0.50;;;;;;;19.99;58.04;100053.31;5070235;28;20082;-80
2022/09/08 11:49:28;;;;;;;2.28;0.65;;;;;;;20.30;57.57;100052.91;5070416;28;20039;-80
2022/09/08 11:53:26;;;;;;;6.10;0.93;;;;;;;20.55;57.64;100054.78;5069291;28;20062;-80
2022/09/08 11:56:59;;;;;;;16.67;2.65;;;;;;;20.29;57.36;100056.53;5001194;28;20074;-80
2022/09/08 12:00:37;;;;;;;2.65;0.57;;;;;;;19.88;57.92;100058.88;5068627;28;20118;-80
2022/09/08 12:03:50;;;;;;;3.92;1.05;;;;;;;19.61;58.15;100052.59;5068409;28;20070;-80
2022/09/08 12:07:09;;;;;;;4.72;1.40;;;;;;;19.89;57.67;100049.91;5068308;28;20083;-80
2022/09/08 12:10:32;;;;;;;2.33;0.40;;;;;;;20.02;56.56;100047.69;5047518;28;20109;-80
2022/09/08 12:14:23;;;;;;;2.33;0.50;;;;;;;19.80;57.46;100041.03;5035699;28;20052;-80
2022/09/08 12:18:19;;;;;;;2.55;0.52;;;;;;;20.03;57.38;100040.56;5048320;28;20044;-80
2022/09/08 12:21:38;;;;;;;2.92;0.40;;;;;;;20.23;56.77;100046.53;5004697;28;20076;-80
2022/09/08 12:24:56;;;;;;;2.70;0.30;;;;;;;20.51;56.26;100056.06;5013409;28;20388;-80
2022/09/08 12:28:19;;;;;;;2.28;0.40;;;;;;;20.42;55.66;100041.03;5047468;28;20091;-81
2022/09/08 12:31:35;;;;;;;3.40;0.45;;;;;;;20.29;55.69;100046.75;5047372;28;20091;-80
2022/09/08 12:35:08;;;;;;;2.42;0.65;;;;;;;20.34;56.17;100041.81;5047781;28;20323;-80
2022/09/08 12:38:51;;;;;;;1.60;0.43;;;;;;;20.63;54.60;100048.69;5047711;28;20044;-81
2022/09/08 12:42:32;;;;;;;1.40;0.40;;;;;;;21.53;51.17;100044.59;5047712;28;20048;-80
2022/09/08 12:45:51;;;;;;;1.63;0.50;;;;;;;21.78;49.49;100024.19;5047323;28;20047;-81
2022/09/08 12:49:20;;;;;;;2.38;0.32;;;;;;;23.11;47.01;100015.88;5047880;28;20451;-80
2022/09/08 12:52:38;;;;;;;2.10;0.70;;;;;;;25.23;42.25;100005.19;5052774;28;20039;-81
2022/09/08 12:56:00;;;;;;;2.30;0.50;;;;;;;28.45;33.92;99999.28;5055267;28;20082;-81
2022/09/08 12:59:10;;;;;;;2.35;0.73;;;;;;;25.84;37.13;100019.03;5070471;28;20051;-81
2022/09/08 13:02:38;;;;;;;2.95;0.75;;;;;;;26.97;33.98;100013.69;5070520;28;20102;-81
2022/09/08 13:05:57;;;;;;;2.83;0.52;;;;;;;27.57;32.76;100002.13;5071292;28;20178;-81
2022/09/08 13:09:04;;;;;;;3.22;0.77;;;;;;;31.25;27.33;99996.22;5070613;28;20042;-80
2022/09/08 13:12:51;;;;;;;3.38;0.70;;;;;;;29.97;28.65;100005.03;5078417;28;20043;-81
2022/09/08 13:16:14;;;;;;;2.97;0.82;;;;;;;34.70;22.78;99990.28;5051420;28;20087;-81
2022/09/08 13:19:28;;;;;;;3.72;0.77;;;;;;;32.31;24.28;100001.06;5052278;28;20377;-81
2022/09/08 13:23:00;;;;;;;2.38;0.57;;;;;;;27.71;30.62;100002.16;5051439;28;20136;-81
2022/09/08 13:26:17;;;;;;;3.20;0.75;;;;;;;28.31;30.18;100007.56;5050986;28;20051;-80
2022/09/08 13:29:24;;;;;;;4.00;0.73;;;;;;;29.17;29.13;99989.38;5051061;28;20036;-80
2022/09/08 13:33:21;;;;;;;2.95;0.88;;;;;;;25.62;34.70;99996.78;5060703;28;20094;-80
2022/09/08 13:36:47;;;;;;;4.30;0.85;;;;;;;26.27;34.25;99991.38;5070779;28;20387;-81
2022/09/08 13:40:06;;;;;;;4.78;1.23;;;;;;;26.46;35.20;100008.63;5061412;28;20040;-81
2022/09/08 13:43:31;;;;;;;4.18;0.60;;;;;;;27.34;33.15;99994.41;5051441;28;20044;-81
2022/09/08 13:46:50;;;;;;;3.55;0.75;;;;;;;25.51;36.35;99997.28;5043116;28;20059;-81
2022/09/08 13:50:10;;;;;;;2.75;0.60;;;;;;;27.19;33.40;99988.41;5057530;28;20082;-81
2022/09/08 13:53:44;;;;;;;3.15;0.60;;;;;;;28.63;30.92;99973.63;5070058;28;20101;-81
2022/09/08 13:57:26;;;;;;;2.03;0.57;;;;;;;31.96;25.64;99969.44;5069562;28;20055;-81
2022/09/08 14:01:14;;;;;;;3.08;0.88;;;;;;;33.27;23.78;99977.13;5071547;28;20399;-81
2022/09/08 14:04:26;;;;;;;4.07;0.90;;;;;;;32.66;24.76;99984.81;5072429;28;20047;-81
2022/09/08 14:07:34;;;;;;;3.45;1.38;;;;;;;33.82;23.61;99971.03;5061261;28;20067;-81
2022/09/08 14:10:40;;;;;;;3.50;0.85;;;;;;;33.49;24.02;99974.53;5070440;28;20035;-81
2022/09/08 14:13:44;;;;;;;2.72;0.93;;;;;;;30.51;28.14;99964.94;5073410;28;20121;-81
2022/09/08 14:16:53;;;;;;;3.72;0.75;;;;;;;27.55;32.47;99965.78;5075666;28;20127;-81
2022/09/08 14:20:15;;;;;;;6.45;1.27;;;;;;;25.72;36.55;99991.94;5068343;28;20071;-81
2022/09/08 14:28:18;;;;;;;3.00;0.77;;;;;;;25.01;38.00;99974.84;5071409;28;20071;-79
2022/09/08 14:31:51;;;;;;;2.17;0.50;;;;;;;25.69;37.07;99965.53;5070310;28;20270;-79
2022/09/08 14:35:38;;;;;;;2.97;0.63;;;;;;;25.57;38.74;99966.25;5051337;28;20086;-79
2022/09/08 14:39:18;;;;;;;2.55;0.60;;;;;;;24.40;39.60;99974.22;5054442;28;20424;-79
2022/09/08 14:42:47;;;;;;;4.07;1.55;;;;;;;23.47;41.15;99973.47;5053520;28;20091;-79
2022/09/08 14:46:29;;;;;;;5.72;2.88;;;;;;;23.09;41.84;99964.53;5087598;28;20042;-79
2022/09/08 14:49:55;;;;;;;3.65;1.02;;;;;;;23.23;41.73;99961.16;5063813;28;20097;-79
2022/09/08 14:53:09;;;;;;;3.50;0.80;;;;;;;23.46;41.41;99960.34;5087698;28;20097;-79
2022/09/08 14:56:19;;;;;;;6.07;1.10;;;;;;;22.97;42.62;99962.28;5073812;28;20043;-79
2022/09/08 14:59:28;;;;;;;3.20;0.50;;;;;;;22.69;43.18;99955.72;5071690;28;20047;-80
2022/09/08 15:02:32;;;;;;;3.00;0.52;;;;;;;22.72;43.23;99952.72;5058788;28;20098;-79
2022/09/08 15:05:35;;;;;;;3.60;0.77;;;;;;;22.80;43.43;99947.31;5072414;28;20550;-80
2022/09/08 15:08:40;;;;;;;3.95;0.60;;;;;;;22.94;43.60;99945.78;5070530;28;20056;-79
2022/09/08 15:11:51;;;;;;;3.47;0.93;;;;;;;23.37;44.02;99951.53;5088477;28;20063;-79
2022/09/08 15:15:34;;;;;;;5.07;0.77;;;;;;;23.28;44.42;99950.75;5088333;28;20047;-78
2022/09/08 15:18:59;;;;;;;5.32;0.68;;;;;;;22.94;44.54;99946.63;5073576;28;20138;-78
2022/09/08 15:22:11;;;;;;;3.42;0.95;;;;;;;23.30;42.69;99955.94;5074303;28;20042;-80
2022/09/08 15:25:51;;;;;;;3.40;0.93;;;;;;;23.42;42.78;99959.84;5094304;28;20124;-78
2022/09/08 15:29:38;;;;;;;4.55;0.98;;;;;;;22.83;42.99;99960.31;5071288;28;20119;-79
2022/09/08 15:33:07;;;;;;;4.68;0.90;;;;;;;22.89;42.91;99970.28;5064465;28;20399;-79
2022/09/08 15:36:50;;;;;;;3.70;0.63;;;;;;;23.26;42.20;99960.78;5070603;28;20503;-79
2022/09/08 15:40:05;;;;;;;4.97;1.00;;;;;;;23.61;41.21;99958.53;5086399;28;20038;-79
2022/09/08 15:43:23;;;;;;;3.70;0.88;;;;;;;23.42;41.83;99968.69;5057932;28;20129;-79
2022/09/08 15:46:33;;;;;;;4.95;1.02;;;;;;;22.81;43.07;99964.97;5074647;28;20136;-79
2022/09/08 15:50:26;;;;;;;4.53;1.50;;;;;;;22.44;43.79;99973.59;5090408;28;20115;-79
2022/09/08 15:53:59;;;;;;;3.95;0.77;;;;;;;22.28;44.37;99971.81;5077210;28;20048;-79
2022/09/08 15:57:32;;;;;;;3.25;0.65;;;;;;;22.09;44.98;99977.47;5068149;28;20044;-80
2022/09/08 16:01:01;;;;;;;6.10;1.02;;;;;;;22.01;45.53;99971.13;5054679;28;20047;-79
2022/09/08 16:04:27;;;;;;;6.03;1.00;;;;;;;22.08;44.89;99971.31;5067194;28;20066;-80
2022/09/08 16:07:45;;;;;;;4.07;0.90;;;;;;;22.14;45.78;99967.94;5092227;28;20086;-79
2022/09/08 16:11:15;;;;;;;6.07;0.85;;;;;;;21.94;46.00;99983.44;5076264;28;20112;-80
2022/09/08 16:14:26;;;;;;;5.65;0.90;;;;;;;22.04;45.20;99970.78;5080529;28;20423;-78
2022/09/08 16:17:32;;;;;;;5.35;1.45;;;;;;;22.00;45.97;99980.13;5084939;28;20104;-79